createdAt,value
2023-02-06T00:00:18.858Z,6.7
2023-02-06T00:02:20.030Z,7.7
2023-02-06T00:04:21.150Z,6.4
2023-02-06T00:18:32.498Z,3.8
2023-02-06T00:20:33.647Z,4.2
2023-02-06T00:22:34.786Z,5.2
2023-02-06T00:24:39.189Z,4.6
2023-02-06T00:26:40.328Z,5.8
2023-02-06T00:28:41.461Z,5.6
2023-02-06T00:29:43.687Z,3.9
2023-02-06T00:31:44.916Z,4.5
2023-02-06T00:33:45.979Z,3.8
2023-02-06T00:35:47.122Z,5.4
2023-02-06T00:37:51.530Z,8.2
2023-02-06T00:39:52.690Z,4.6
2023-02-06T00:41:53.855Z,6.9
2023-02-06T00:43:55.024Z,7.2
2023-02-06T00:45:56.167Z,4.2
2023-02-06T00:47:57.324Z,5.1
2023-02-06T00:49:58.475Z,4.3
2023-02-06T00:52:02.878Z,6.6
2023-02-06T00:54:04.038Z,5
2023-02-06T00:56:05.208Z,4.5
2023-02-06T00:58:06.305Z,4.3
2023-02-06T01:00:07.477Z,4.1
2023-02-06T01:02:08.647Z,3.9
2023-02-06T01:04:09.779Z,4.3
2023-02-06T01:06:14.173Z,7.2
2023-02-06T01:08:15.365Z,3.9
2023-02-06T01:10:16.472Z,7.7
2023-02-06T01:12:17.625Z,5
2023-02-06T01:14:18.764Z,4.4
2023-02-06T01:20:25.532Z,5.5
2023-02-06T01:22:26.649Z,8.6
2023-02-06T01:24:27.771Z,4.1
2023-02-06T01:25:29.990Z,5.7
2023-02-06T01:27:31.163Z,6.6
2023-02-06T01:31:33.574Z,6.7
2023-02-06T01:33:37.880Z,4.2
2023-02-06T01:35:39.032Z,4.6
2023-02-06T01:39:41.373Z,4.8
2023-02-06T01:41:42.537Z,5.3
2023-02-06T01:47:49.207Z,5
2023-02-06T01:49:50.366Z,3.8
2023-02-06T01:53:52.672Z,5.2
2023-02-06T01:55:53.863Z,5.3
2023-02-06T01:57:55.006Z,4.2
2023-02-06T01:59:56.144Z,4.3
2023-02-06T02:02:00.663Z,5.6
2023-02-06T02:04:01.749Z,5.2
2023-02-06T02:06:03.003Z,5.2
2023-02-06T02:08:04.063Z,7.4
2023-02-06T02:10:05.219Z,6.5
2023-02-06T02:12:06.357Z,9.8
2023-02-06T02:14:07.544Z,3.7
2023-02-06T02:16:11.975Z,5
2023-02-06T02:18:13.114Z,4.7
2023-02-06T02:20:14.286Z,5.1
2023-02-06T02:28:37.297Z,5.3
2023-02-06T02:38:43.129Z,6.5
2023-02-06T02:42:48.702Z,4.1
2023-02-06T02:44:49.877Z,3
2023-02-06T02:48:52.229Z,4.2
2023-02-06T02:52:54.561Z,2.6
2023-02-06T02:54:55.744Z,4
2023-02-06T02:57:00.146Z,3
2023-02-06T02:59:01.356Z,4.8
2023-02-06T03:01:02.535Z,4.3
2023-02-06T03:03:03.650Z,3.6
2023-02-06T03:05:04.818Z,4.5
2023-02-06T03:07:05.930Z,5.4
2023-02-06T03:09:07.120Z,4
2023-02-06T03:11:11.553Z,4.3
2023-02-06T03:13:12.737Z,8.7
2023-02-06T03:15:13.920Z,4
2023-02-06T03:16:16.242Z,4.8
2023-02-06T03:18:17.291Z,4
2023-02-06T03:20:18.474Z,6.8
2023-02-06T03:22:19.633Z,4.5
2023-02-06T03:24:24.060Z,4.3
2023-02-06T03:26:26.766Z,3.2
2023-02-06T03:28:27.866Z,3.9
2023-02-06T03:30:29.073Z,3.3
2023-02-06T03:32:30.224Z,3.8
2023-02-06T03:34:31.413Z,3.7
2023-02-06T03:36:32.534Z,5
2023-02-06T03:38:36.983Z,5
2023-02-06T03:40:38.129Z,4.6
2023-02-06T03:42:39.285Z,5.1
2023-02-06T03:44:40.426Z,6.8
2023-02-06T03:46:41.589Z,4.4
2023-02-06T03:48:42.740Z,3.9
2023-02-06T03:50:43.916Z,4.6
2023-02-06T03:52:48.331Z,4.2
2023-02-06T04:00:52.980Z,3.7
2023-02-06T04:02:54.114Z,5.1
2023-02-06T04:04:55.268Z,5.6
2023-02-06T04:06:59.649Z,2.9
2023-02-06T04:09:00.830Z,4
2023-02-06T04:11:01.983Z,4.5
2023-02-06T04:14:05.361Z,5.7
2023-02-06T04:16:06.575Z,4.1
2023-02-06T04:18:07.649Z,3.5
2023-02-06T04:20:12.070Z,3.8
2023-02-06T04:26:15.532Z,5
2023-02-06T04:30:17.859Z,3.7
2023-02-06T04:38:25.712Z,5.6
2023-02-06T04:40:26.861Z,4.6
2023-02-06T04:42:28.020Z,5.1
2023-02-06T04:44:29.158Z,3.8
2023-02-06T04:46:30.406Z,5.3
2023-02-06T04:50:35.931Z,5
2023-02-06T04:52:37.048Z,3.6
2023-02-06T04:56:39.368Z,3.2
2023-02-06T04:58:40.542Z,4.1
2023-02-06T05:02:46.207Z,4.5
2023-02-06T05:04:47.311Z,5.4
2023-02-06T05:06:48.461Z,5.8
2023-02-06T05:07:50.688Z,7.2
2023-02-06T05:09:51.844Z,4.7
2023-02-06T05:11:53.017Z,5.8
2023-02-06T05:15:58.596Z,6.3
2023-02-06T05:20:00.896Z,3.8
2023-02-06T05:22:02.062Z,8.9
2023-02-06T05:24:03.247Z,3.6
2023-02-06T05:26:04.405Z,4
2023-02-06T05:28:05.617Z,5.1
2023-02-06T05:30:10.038Z,4.5
2023-02-06T05:32:11.138Z,4.7
2023-02-06T05:34:12.313Z,3.3
2023-02-06T05:36:13.432Z,2.7
2023-02-06T05:38:14.628Z,3.9
2023-02-06T05:40:15.802Z,2.8
2023-02-06T05:42:16.944Z,3.8
2023-02-06T05:54:27.178Z,5.7
2023-02-06T05:56:28.390Z,3.5
2023-02-06T06:05:03.567Z,8.1
2023-02-06T06:07:04.686Z,8.4
2023-02-06T06:11:10.251Z,4.4
2023-02-06T06:13:11.451Z,3.4
2023-02-06T06:15:12.612Z,3.5
2023-02-06T06:21:16.116Z,3.8
2023-02-06T06:23:17.290Z,3.1
2023-02-06T06:25:21.689Z,5.5
2023-02-06T06:27:22.824Z,4.5
2023-02-06T06:29:24.005Z,4.9
2023-02-06T06:31:25.310Z,4.5
2023-02-06T06:33:26.362Z,5.6
2023-02-06T06:35:27.566Z,8.3
2023-02-06T06:37:28.696Z,4.8
2023-02-06T06:39:33.151Z,4.6
2023-02-06T06:41:34.319Z,3.5
2023-02-06T06:43:35.481Z,7.8
2023-02-06T06:47:37.846Z,5.5
2023-02-06T06:49:38.989Z,3.7
2023-02-06T06:51:40.131Z,4
2023-02-06T06:53:44.533Z,6.7
2023-02-06T06:55:45.724Z,3.3
2023-02-06T06:58:49.077Z,3.9
2023-02-06T07:02:51.471Z,4.4
2023-02-06T07:04:52.620Z,3
2023-02-06T07:06:57.018Z,4.3
2023-02-06T07:08:58.164Z,4.6
2023-02-06T07:19:04.021Z,8.6
2023-02-06T07:21:08.462Z,6.3
2023-02-06T07:23:09.659Z,6.8
2023-02-06T07:25:10.804Z,6.5
2023-02-06T07:35:19.919Z,4.7
2023-02-06T07:37:21.076Z,4.6
2023-02-06T07:41:23.398Z,4.8
2023-02-06T07:43:24.605Z,3.9
2023-02-06T07:45:25.751Z,5.5
2023-02-06T07:47:26.930Z,5.2
2023-02-06T07:49:31.361Z,7.7
2023-02-06T07:51:32.518Z,4.4
2023-02-06T07:53:33.682Z,4.8
2023-02-06T07:54:35.898Z,4.6
2023-02-06T07:56:37.055Z,5
2023-02-06T07:58:38.256Z,5.4
2023-02-06T08:00:39.396Z,4.4
2023-02-06T08:02:43.835Z,6.2
2023-02-06T08:04:45.023Z,5.3
2023-02-06T08:06:46.120Z,4.1
2023-02-06T08:08:47.359Z,5.2
2023-02-06T08:10:48.509Z,8.8
2023-02-06T08:12:49.641Z,5.7
2023-02-06T08:14:50.799Z,8.7
2023-02-06T08:16:55.229Z,10.9
2023-02-06T08:18:56.411Z,6.8
2023-02-06T08:20:57.556Z,5.9
2023-02-06T08:22:58.752Z,8.1
2023-02-06T08:24:59.892Z,8.9
2023-02-06T08:27:01.053Z,8
2023-02-06T08:29:02.262Z,8.1
2023-02-06T08:31:07.597Z,9.1
2023-02-06T08:33:07.805Z,5.9
2023-02-06T08:35:09.000Z,7.1
2023-02-06T08:37:10.171Z,5.7
2023-02-06T08:39:11.326Z,5.1
2023-02-06T08:41:12.520Z,8
2023-02-06T08:43:13.694Z,4.9
2023-02-06T08:45:18.119Z,5.6
2023-02-06T08:47:19.308Z,5.7
2023-02-06T08:49:20.496Z,5.4
2023-02-06T08:50:22.714Z,7.1
2023-02-06T08:52:23.860Z,4.7
2023-02-06T08:54:25.049Z,2.9
2023-02-06T08:56:26.206Z,5.3
2023-02-06T08:58:30.610Z,3
2023-02-06T09:00:31.857Z,3
2023-02-06T09:02:33.082Z,2.4
2023-02-06T09:04:34.152Z,3.4
2023-02-06T09:06:35.322Z,3.7
2023-02-06T09:08:36.508Z,7
2023-02-06T09:12:42.101Z,3.5
2023-02-06T09:18:47.201Z,8.6
2023-02-06T09:20:48.353Z,3.8
2023-02-06T09:22:49.533Z,5.9
2023-02-06T09:24:50.678Z,3.5
2023-02-06T09:26:59.745Z,4.7
2023-02-06T09:30:57.625Z,2.8
2023-02-06T09:32:58.739Z,3
2023-02-06T09:34:59.919Z,4.6
2023-02-06T09:37:01.109Z,2.9
2023-02-06T09:39:02.329Z,3.8
2023-02-06T09:43:07.940Z,3.2
2023-02-06T09:47:37.566Z,4.3
2023-02-06T09:49:38.775Z,6.1
2023-02-06T09:51:39.962Z,2.1
2023-02-06T09:53:44.389Z,3.1
2023-02-06T09:55:45.617Z,2.9
2023-02-06T09:57:46.814Z,2.7
2023-02-06T09:59:48.021Z,3.3
2023-02-06T10:01:49.286Z,4.1
2023-02-06T10:03:50.478Z,3.6
2023-02-06T10:05:51.603Z,3.5
2023-02-06T10:07:56.071Z,6.8
2023-02-06T10:09:57.256Z,3.7
2023-02-06T10:11:58.462Z,3.4
2023-02-06T10:13:59.662Z,3.8
2023-02-06T10:16:01.061Z,3.1
2023-02-06T10:18:02.086Z,7.2
2023-02-06T10:20:03.291Z,8.4
2023-02-06T10:22:07.771Z,2.9
2023-02-06T10:24:08.942Z,2.4
2023-02-06T10:26:10.172Z,3.8
2023-02-06T10:28:11.454Z,4.7
2023-02-06T10:34:15.056Z,3.9
2023-02-06T10:36:19.547Z,2.5
2023-02-06T10:38:20.723Z,3.1
2023-02-06T10:40:21.927Z,3
2023-02-06T10:41:24.188Z,4
2023-02-06T10:45:26.576Z,7
2023-02-06T10:47:27.790Z,3.7
2023-02-06T10:57:37.129Z,4.7
2023-02-06T10:59:38.334Z,2.8
2023-02-06T11:05:45.236Z,2.7
2023-02-06T11:07:46.484Z,4.5
2023-02-06T11:09:47.688Z,2.9
2023-02-06T11:11:48.913Z,3.8
2023-02-06T11:13:50.121Z,4.3
2023-02-06T11:15:51.339Z,3.1
2023-02-06T11:19:57.018Z,2.9
2023-02-06T11:21:58.208Z,3.4
2023-02-06T11:23:59.464Z,3.1
2023-02-06T11:26:00.661Z,5.1
2023-02-06T11:28:01.919Z,4.6
2023-02-06T11:30:03.075Z,3.3
2023-02-06T11:32:07.536Z,3.9
2023-02-06T11:34:08.745Z,4.5
2023-02-06T11:36:10.030Z,4
2023-02-06T11:37:12.220Z,5.1
2023-02-06T11:39:13.475Z,2.7
2023-02-06T11:41:14.841Z,4.7
2023-02-06T11:43:15.907Z,5.8
2023-02-06T11:45:20.501Z,3
2023-02-06T11:47:21.598Z,3.2
2023-02-06T11:49:22.817Z,4.8
2023-02-06T11:51:24.019Z,2.5
2023-02-06T11:53:25.251Z,4.8
2023-02-06T11:55:26.598Z,3
2023-02-06T11:57:27.679Z,2.8
2023-02-06T11:59:32.173Z,14.5
2023-02-06T12:01:33.389Z,3.3
2023-02-06T12:03:34.615Z,3
2023-02-06T12:05:36.130Z,3.6
2023-02-06T12:07:37.061Z,3.4
2023-02-06T12:09:38.272Z,3.1
2023-02-06T12:11:39.517Z,3.7
2023-02-06T12:13:43.999Z,3.3
2023-02-06T12:17:46.434Z,2.8
2023-02-06T12:19:47.640Z,2.7
2023-02-06T12:21:48.914Z,2.7
2023-02-06T12:23:50.093Z,2.3
2023-02-06T12:25:51.370Z,2.9
2023-02-06T12:27:55.927Z,2.9
2023-02-06T12:29:57.012Z,3.6
2023-02-06T12:31:58.384Z,3.8
2023-02-06T12:33:00.480Z,6.3
2023-02-06T12:35:01.697Z,2.9
2023-02-06T12:37:02.929Z,3.6
2023-02-06T12:39:04.138Z,1.9
2023-02-06T12:41:08.616Z,2.6
2023-02-06T12:43:09.838Z,2.6
2023-02-06T12:45:11.067Z,2.6
2023-02-06T12:47:12.278Z,3.4
2023-02-06T12:49:13.496Z,3
2023-02-06T12:51:14.696Z,3.4
2023-02-06T12:55:20.407Z,1.9
2023-02-06T12:57:21.640Z,1.9
2023-02-06T12:59:22.866Z,3.4
2023-02-06T13:01:31.004Z,3.2
2023-02-06T13:05:26.557Z,3
2023-02-06T13:07:27.771Z,3.3
2023-02-06T13:09:32.247Z,2.7
2023-02-06T13:13:34.681Z,4.4
2023-02-06T13:15:36.363Z,2.3
2023-02-06T13:17:37.135Z,1.8
2023-02-06T13:19:38.374Z,3
2023-02-06T13:21:39.564Z,2
2023-02-06T13:23:44.063Z,2.3
2023-02-06T13:25:45.278Z,2
2023-02-06T13:27:46.500Z,4
2023-02-06T13:36:21.749Z,1.9
2023-02-06T13:38:22.978Z,4.3
2023-02-06T13:40:24.195Z,4.5
2023-02-06T13:44:26.614Z,3.8
2023-02-06T13:48:29.038Z,4.6
2023-02-06T13:50:33.503Z,5.6
2023-02-06T13:52:34.766Z,6.4
2023-02-06T13:54:35.925Z,5.1
2023-02-06T13:56:37.148Z,5.5
2023-02-06T13:58:38.360Z,4.8
2023-02-06T14:00:39.572Z,5.5
2023-02-06T14:02:40.827Z,4.9
2023-02-06T14:04:45.232Z,5.3
2023-02-06T14:06:46.458Z,6.2
2023-02-06T14:08:47.680Z,3.1
2023-02-06T14:10:48.903Z,3.7
2023-02-06T14:12:50.263Z,5.3
2023-02-06T14:14:51.323Z,4.8
2023-02-06T14:16:52.551Z,3.4
2023-02-06T14:18:56.975Z,4
2023-02-06T14:22:59.881Z,4.4
2023-02-06T14:24:01.617Z,3.4
2023-02-06T14:32:09.730Z,2
2023-02-06T14:34:10.958Z,1.8
2023-02-06T14:36:12.170Z,2.3
2023-02-06T14:40:14.610Z,1.5
2023-02-06T14:42:15.811Z,2.2
2023-02-06T14:44:17.042Z,2.1
2023-02-06T14:46:21.564Z,2.5
2023-02-06T14:48:22.705Z,2.8
2023-02-06T14:50:23.952Z,1.8
2023-02-06T14:54:26.347Z,4.6
2023-02-06T14:56:27.553Z,3.6
2023-02-06T14:58:28.742Z,4.5
2023-02-06T15:00:33.329Z,4
2023-02-06T15:02:34.481Z,2.9
2023-02-06T15:04:35.641Z,2.4
2023-02-06T15:06:38.423Z,2.7
2023-02-06T15:08:39.575Z,2.8
2023-02-06T15:10:40.768Z,2
2023-02-06T15:12:41.975Z,1.2
2023-02-06T15:14:46.468Z,4.8
2023-02-06T15:16:47.670Z,2.2
2023-02-06T15:18:48.847Z,3
2023-02-06T15:19:51.107Z,2.6
2023-02-06T15:21:52.306Z,3.4
2023-02-06T15:27:59.190Z,2.4
2023-02-06T15:30:00.392Z,2.7
2023-02-06T15:36:04.021Z,2.5
2023-02-06T15:40:06.402Z,2.5
2023-02-06T15:44:12.057Z,4.2
2023-02-06T15:46:13.433Z,5
2023-02-06T15:48:14.484Z,3.1
2023-02-06T16:00:24.945Z,2.3
2023-02-06T16:04:27.352Z,4
2023-02-06T16:08:29.744Z,2.8
2023-02-06T16:10:34.596Z,2.8
2023-02-06T16:14:36.558Z,3.3
2023-02-06T16:15:38.782Z,3.4
2023-02-06T16:17:39.997Z,3.5
2023-02-06T16:19:41.173Z,2.9
2023-02-06T16:21:42.375Z,3.5
2023-02-06T16:23:46.833Z,2.7
2023-02-06T16:27:49.241Z,3.6
2023-02-06T16:29:50.462Z,5
2023-02-06T16:31:51.673Z,5
2023-02-06T16:39:59.632Z,4.7
2023-02-06T16:42:00.849Z,7.3
2023-02-06T16:48:04.393Z,7.2
2023-02-06T16:50:05.573Z,5.7
2023-02-06T16:52:10.045Z,5.1
2023-02-06T16:54:11.237Z,5.3
2023-02-06T16:56:12.396Z,5.7
2023-02-06T16:58:13.588Z,5.8
2023-02-06T17:00:14.822Z,7.6
2023-02-06T17:02:15.987Z,6.3
2023-02-06T17:04:17.140Z,6.2
2023-02-06T17:06:21.627Z,6.2
2023-02-06T17:08:22.807Z,8.5
2023-02-06T17:10:24.007Z,7.5
2023-02-06T17:12:52.299Z,7.8
2023-02-06T17:14:53.539Z,5.9
2023-02-06T17:16:54.701Z,4.9
2023-02-06T17:18:59.131Z,3.9
2023-02-06T17:21:00.357Z,4.1
2023-02-06T17:23:01.577Z,4.5
2023-02-06T17:25:02.742Z,8.2
2023-02-06T17:31:06.403Z,13.7
2023-02-06T17:35:11.937Z,9.8
2023-02-06T17:37:13.136Z,10
2023-02-06T17:39:14.326Z,8.9
2023-02-06T17:41:15.562Z,8.6
2023-02-06T17:45:17.901Z,12.7
2023-02-06T17:47:22.351Z,10
2023-02-06T17:49:23.494Z,11.9
2023-02-06T17:51:24.700Z,12.3
2023-02-06T18:06:38.476Z,9.4
2023-02-06T18:08:39.563Z,8.5
2023-02-06T18:10:40.736Z,10
2023-02-06T18:12:41.927Z,10.2
2023-02-06T18:14:46.347Z,8.5
2023-02-06T18:16:47.499Z,10.9
2023-02-06T18:18:48.706Z,9.6
2023-02-06T18:20:49.836Z,6.8
2023-02-06T18:22:51.021Z,11.9
2023-02-06T18:24:52.166Z,8.5
2023-02-06T18:26:53.335Z,12.2
2023-02-06T18:28:57.729Z,10.3
2023-02-06T18:30:59.512Z,9.4
2023-02-06T18:33:00.634Z,7.7
2023-02-06T18:35:01.820Z,6.7
2023-02-06T18:37:02.954Z,10.8
2023-02-06T18:39:04.099Z,5.8
2023-02-06T18:41:05.279Z,7.9
2023-02-06T18:45:10.908Z,11.6
2023-02-06T18:47:12.053Z,15.7
2023-02-06T18:49:13.233Z,14.5
2023-02-06T18:53:15.593Z,18.1
2023-02-06T18:57:21.153Z,21.4
2023-02-06T18:59:22.315Z,21.1
2023-02-06T19:01:23.478Z,22.9
2023-02-06T19:02:25.682Z,23
2023-02-06T19:04:26.842Z,22.8
2023-02-06T19:06:27.956Z,26.5
2023-02-06T19:08:29.111Z,25.4
2023-02-06T19:10:33.498Z,26.7
2023-02-06T19:12:34.656Z,20.9
2023-02-06T19:14:35.843Z,23.5
2023-02-06T19:16:36.968Z,23.9
2023-02-06T19:18:41.614Z,22.4
2023-02-06T19:22:40.385Z,33.3
2023-02-06T19:24:44.734Z,25
2023-02-06T19:26:45.859Z,24.5
2023-02-06T19:28:47.007Z,30.5
2023-02-06T19:30:48.202Z,29.1
2023-02-06T19:32:49.290Z,32.6
2023-02-06T19:34:50.417Z,35.5
2023-02-06T19:36:51.558Z,35.3
2023-02-06T19:38:56.055Z,34.4
2023-02-06T19:40:57.072Z,39.1
2023-02-06T19:42:58.224Z,37.5
2023-02-06T19:44:59.334Z,42.8
2023-02-06T19:47:00.465Z,44.4
2023-02-06T19:49:01.775Z,44
2023-02-06T19:51:02.745Z,49.1
2023-02-06T19:55:08.278Z,51.4
2023-02-06T19:57:09.408Z,46.2
2023-02-06T19:58:11.630Z,53.3
2023-02-06T20:00:12.745Z,46
2023-02-06T20:02:13.880Z,41.8
2023-02-06T20:08:20.522Z,45
2023-02-06T20:10:21.672Z,38.3
2023-02-06T20:12:22.792Z,40.1
2023-02-06T20:14:23.934Z,37.7
2023-02-06T20:16:25.148Z,37.9
2023-02-06T20:18:26.605Z,37.4
2023-02-06T20:20:30.607Z,35
2023-02-06T20:22:31.726Z,38.3
2023-02-06T20:24:32.870Z,35.9
2023-02-06T20:26:33.996Z,36.6
2023-02-06T20:28:35.103Z,34.3
2023-02-06T20:30:36.813Z,32.7
2023-02-06T20:32:37.393Z,35.3
2023-02-06T20:34:41.763Z,62.8
2023-02-06T20:36:42.881Z,42.1
2023-02-06T20:38:44.032Z,29.7
2023-02-06T20:40:45.168Z,29.6
2023-02-06T20:42:46.309Z,26.3
2023-02-06T20:44:47.407Z,26.5
2023-02-06T20:46:48.556Z,24.4
2023-02-06T20:48:52.932Z,22.2
2023-02-06T20:50:54.059Z,22.2
2023-02-06T20:52:55.185Z,22.5
2023-02-06T20:55:23.047Z,24.5
2023-02-06T20:57:24.079Z,23.1
2023-02-06T20:59:25.775Z,25.5
2023-02-06T21:01:29.655Z,26.4
2023-02-06T21:03:30.716Z,21.6
2023-02-06T21:05:31.822Z,21
2023-02-06T21:07:32.949Z,22.5
2023-02-06T21:09:34.093Z,19.3
2023-02-06T21:11:35.263Z,21.5
2023-02-06T21:13:36.306Z,20.3
2023-02-06T21:15:40.756Z,20.6
2023-02-06T21:17:41.831Z,19.8
2023-02-06T21:19:42.931Z,21.2
2023-02-06T21:21:46.071Z,24
2023-02-06T21:23:45.155Z,24.2
2023-02-06T21:27:47.450Z,28.3
2023-02-06T21:29:51.758Z,33.2
2023-02-06T21:32:07.238Z,32.6
2023-02-06T21:33:53.993Z,31.4
2023-02-06T21:35:55.093Z,27.9
2023-02-06T21:37:56.214Z,28.6
2023-02-06T21:39:57.306Z,23.4
2023-02-06T21:41:58.440Z,23
2023-02-06T21:44:02.830Z,24.6
2023-02-06T21:46:03.963Z,25.4
2023-02-06T21:48:05.044Z,30.1
2023-02-06T21:49:07.221Z,26.3
2023-02-06T21:51:08.352Z,29.3
2023-02-06T21:57:14.942Z,25.7
2023-02-06T21:59:16.063Z,25.7
2023-02-06T22:01:17.211Z,23.6
2023-02-06T22:03:18.303Z,23.9
2023-02-06T22:05:19.354Z,26.2
2023-02-06T22:11:25.918Z,24.2
2023-02-06T22:25:37.104Z,24.7
2023-02-06T22:27:37.902Z,24.8
2023-02-06T22:29:38.977Z,22.9
2023-02-06T22:31:40.120Z,22.5
2023-02-06T22:33:41.176Z,25.3
2023-02-06T22:35:42.286Z,24.9
2023-02-06T22:37:44.635Z,22.9
2023-02-06T22:39:47.743Z,22.1
2023-02-06T22:41:48.898Z,21.4
2023-02-06T22:43:49.935Z,21.5
2023-02-06T22:46:53.230Z,20.9
2023-02-06T22:48:54.306Z,22.2
2023-02-06T22:50:55.395Z,21.7
2023-02-06T22:52:59.793Z,19.5
2023-02-06T22:55:00.890Z,25.2
2023-02-06T22:57:02.001Z,25
2023-02-06T22:59:03.118Z,24.5
2023-02-06T23:01:04.326Z,19.5
2023-02-06T23:03:05.411Z,17.6
2023-02-06T23:05:06.409Z,18.9
2023-02-06T23:07:10.763Z,17.9
2023-02-06T23:09:11.866Z,16.6
2023-02-06T23:11:12.915Z,16.4
2023-02-06T23:13:13.998Z,17.3
2023-02-06T23:15:15.136Z,17.7
2023-02-06T23:17:16.209Z,18.5
2023-02-06T23:19:17.317Z,19.3
2023-02-06T23:21:21.681Z,20.2
2023-02-06T23:25:23.848Z,18.4
2023-02-06T23:27:24.940Z,19.1
2023-02-06T23:29:26.019Z,15.2
2023-02-06T23:31:27.197Z,19
2023-02-06T23:33:28.216Z,21.7
2023-02-06T23:37:33.663Z,21
2023-02-06T23:39:34.753Z,23.7
2023-02-06T23:40:36.906Z,23.5
2023-02-06T23:42:38.010Z,20
2023-02-06T23:44:39.123Z,23.3
2023-02-06T23:48:44.496Z,22.7
2023-02-06T23:50:45.609Z,23.5
2023-02-06T23:52:46.670Z,24.7
2023-02-06T23:54:47.764Z,24.1
2023-02-06T23:56:48.860Z,21.4
2023-02-06T23:58:49.953Z,22.6
